createdAt,value
2023-05-16T00:08:04.845Z,10.36
2023-05-16T00:10:44.925Z,9.97
2023-05-16T00:13:18.318Z,10.44
2023-05-16T00:15:51.882Z,10.29
2023-05-16T00:18:25.105Z,10.37
2023-05-16T00:21:04.958Z,10.21
2023-05-16T00:33:31.877Z,9.99
2023-05-16T00:36:05.910Z,9.73
2023-05-16T00:38:39.889Z,9.70
2023-05-16T00:41:16.788Z,9.80
2023-05-16T00:43:56.889Z,9.24
2023-05-16T00:46:30.138Z,9.73
2023-05-16T00:59:41.853Z,9.58
2023-05-16T01:02:21.906Z,8.86
2023-05-16T01:04:55.534Z,9.42
2023-05-16T01:07:29.890Z,9.48
2023-05-16T01:10:06.176Z,9.38
2023-05-16T01:12:49.888Z,9.46
2023-05-16T01:26:29.938Z,11.51
2023-05-16T01:29:03.908Z,11.01
2023-05-16T01:31:37.884Z,11.73
2023-05-16T01:34:12.845Z,11.68
2023-05-16T01:36:55.887Z,12.09
2023-05-16T01:39:37.714Z,11.98
2023-05-16T01:42:21.891Z,11.77
2023-05-16T01:55:53.867Z,12.28
2023-05-16T01:58:33.889Z,12.38
2023-05-16T02:01:13.945Z,12.08
2023-05-16T02:03:47.163Z,12.27
2023-05-16T02:06:20.904Z,12.81
2023-05-16T02:20:00.905Z,12.11
2023-05-16T02:22:34.107Z,12.24
2023-05-16T02:25:14.882Z,12.42
2023-05-16T02:27:48.285Z,12.00
2023-05-16T02:30:21.946Z,12.39
2023-05-16T02:32:55.530Z,12.03
2023-05-16T02:49:10.889Z,12.03
2023-05-16T02:51:45.103Z,12.21
2023-05-16T02:54:18.869Z,12.18
2023-05-16T02:56:52.128Z,12.15
2023-05-16T02:59:25.904Z,12.56
2023-05-16T03:01:59.409Z,12.31
2023-05-16T03:14:49.845Z,12.73
2023-05-16T03:17:30.061Z,12.51
2023-05-16T03:20:04.226Z,12.60
2023-05-16T03:22:37.882Z,12.76
2023-05-16T03:25:11.129Z,12.89
2023-05-16T03:27:56.880Z,12.52
2023-05-16T03:41:09.030Z,13.42
2023-05-16T03:43:42.517Z,13.13
2023-05-16T03:46:15.962Z,13.07
2023-05-16T03:48:49.129Z,12.84
2023-05-16T03:51:22.890Z,13.77
2023-05-16T04:07:59.845Z,14.22
2023-05-16T04:10:39.889Z,13.79
2023-05-16T04:13:13.937Z,13.85
2023-05-16T04:15:47.858Z,13.79
2023-05-16T04:18:21.173Z,13.71
2023-05-16T04:20:54.870Z,13.75
2023-05-16T04:23:30.094Z,14.15
2023-05-16T04:33:38.884Z,14.32
2023-05-16T04:36:19.173Z,14.25
2023-05-16T04:39:00.946Z,14.22
2023-05-16T04:41:34.433Z,14.64
2023-05-16T04:44:09.018Z,14.22
2023-05-16T04:46:42.521Z,14.34
2023-05-16T05:02:54.914Z,15.31
2023-05-16T05:05:22.053Z,15.58
2023-05-16T05:08:01.928Z,15.73
2023-05-16T05:10:35.171Z,16.03
2023-05-16T05:13:08.861Z,15.45
2023-05-16T05:27:05.845Z,16.87
2023-05-16T05:29:41.302Z,16.51
2023-05-16T05:32:14.896Z,16.97
2023-05-16T05:34:48.210Z,16.89
2023-05-16T05:37:21.867Z,16.96
2023-05-16T05:39:55.162Z,17.04
2023-05-16T05:42:28.958Z,16.48
2023-05-16T05:55:40.882Z,17.07
2023-05-16T05:58:14.304Z,17.01
2023-05-16T06:00:47.894Z,16.68
2023-05-16T06:03:21.353Z,17.10
2023-05-16T06:05:54.961Z,17.07
2023-05-16T06:08:28.225Z,17.18
2023-05-16T06:21:18.849Z,18.23
2023-05-16T06:23:58.862Z,17.71
2023-05-16T06:26:33.345Z,17.54
2023-05-16T06:29:06.870Z,18.58
2023-05-16T06:31:40.107Z,18.34
2023-05-16T06:34:13.944Z,18.48
2023-05-16T06:36:49.106Z,18.61
2023-05-16T06:49:37.897Z,18.64
2023-05-16T06:52:20.092Z,18.57
2023-05-16T06:54:53.220Z,18.10
2023-05-16T06:57:26.907Z,18.25
2023-05-16T07:00:00.275Z,18.44
2023-05-16T07:02:34.021Z,18.74
2023-05-16T07:15:45.921Z,18.05
2023-05-16T07:18:19.205Z,18.63
2023-05-16T07:20:59.950Z,18.50
2023-05-16T07:23:35.859Z,18.05
2023-05-16T07:26:09.925Z,17.97
2023-05-16T07:28:43.182Z,18.14
2023-05-16T07:41:33.885Z,18.89
2023-05-16T07:44:13.945Z,18.73
2023-05-16T07:46:47.274Z,18.33
2023-05-16T07:49:20.993Z,18.82
2023-05-16T07:51:54.265Z,18.29
2023-05-16T07:54:28.060Z,18.64
2023-05-16T07:57:03.633Z,18.61
2023-05-16T08:09:51.871Z,20.60
2023-05-16T08:12:33.918Z,21.21
2023-05-16T08:15:09.014Z,20.93
2023-05-16T08:17:42.963Z,20.85
2023-05-16T08:20:16.512Z,21.79
2023-05-16T08:22:49.918Z,21.16
2023-05-16T08:36:01.886Z,22.53
2023-05-16T08:38:35.180Z,22.00
2023-05-16T08:41:08.915Z,21.18
2023-05-16T08:43:42.589Z,22.96
2023-05-16T08:46:15.930Z,21.26
2023-05-16T09:02:11.885Z,23.14
2023-05-16T09:04:55.415Z,23.59
2023-05-16T09:07:29.571Z,23.29
2023-05-16T09:10:02.942Z,22.00
2023-05-16T09:12:36.663Z,22.40
2023-05-16T09:15:13.917Z,23.64
2023-05-16T09:17:50.005Z,25.51
2023-05-16T09:27:58.917Z,23.61
2023-05-16T09:30:34.572Z,22.84
2023-05-16T09:33:12.982Z,23.39
2023-05-16T09:35:46.280Z,23.67
2023-05-16T09:38:23.921Z,23.82
2023-05-16T09:40:57.172Z,23.90
2023-05-16T09:43:33.985Z,22.08
2023-05-16T09:56:57.999Z,22.31
2023-05-16T09:59:35.494Z,21.09
2023-05-16T10:02:22.051Z,22.32
2023-05-16T10:04:55.228Z,23.02
2023-05-16T10:07:28.943Z,22.26
2023-05-16T10:21:23.923Z,22.02
2023-05-16T10:24:07.025Z,21.53
2023-05-16T10:26:46.908Z,21.18
2023-05-16T10:29:20.842Z,21.92
2023-05-16T10:31:54.940Z,21.27
2023-05-16T10:34:29.206Z,20.63
2023-05-16T10:37:03.948Z,20.23
2023-05-16T10:50:16.948Z,19.38
2023-05-16T10:52:52.822Z,19.62
2023-05-16T10:55:26.118Z,18.47
2023-05-16T10:58:00.098Z,18.64
2023-05-16T11:00:39.993Z,17.40
2023-05-16T11:03:23.218Z,17.64
2023-05-16T11:16:35.921Z,16.33
2023-05-16T11:19:15.928Z,16.27
2023-05-16T11:22:12.187Z,15.83
2023-05-16T11:25:04.911Z,16.45
2023-05-16T11:27:46.180Z,16.20
2023-05-16T11:44:08.921Z,14.08
2023-05-16T11:46:42.331Z,14.35
2023-05-16T11:49:15.921Z,15.27
2023-05-16T11:51:49.420Z,13.76
2023-05-16T11:54:25.003Z,13.95
2023-05-16T11:56:59.107Z,13.46
2023-05-16T12:09:49.886Z,12.44
2023-05-16T12:12:29.916Z,12.17
2023-05-16T12:15:05.880Z,12.37
2023-05-16T12:17:40.052Z,11.86
2023-05-16T12:20:15.814Z,11.85
2023-05-16T12:22:50.931Z,11.75
2023-05-16T12:36:02.926Z,11.61
2023-05-16T12:38:36.294Z,11.36
2023-05-16T12:41:09.927Z,11.20
2023-05-16T12:43:46.714Z,10.95
2023-05-16T12:46:26.957Z,11.11
2023-05-16T12:49:02.781Z,11.39
2023-05-16T13:02:04.944Z,11.67
2023-05-16T13:04:45.045Z,11.57
2023-05-16T13:07:18.181Z,11.62
2023-05-16T13:09:52.145Z,12.23
2023-05-16T13:12:25.152Z,11.97
2023-05-16T13:14:58.910Z,11.79
2023-05-16T13:17:34.644Z,11.83
2023-05-16T13:30:22.892Z,11.59
2023-05-16T13:33:04.914Z,12.04
2023-05-16T13:35:38.349Z,12.12
2023-05-16T13:38:11.904Z,11.79
2023-05-16T13:40:45.136Z,12.07
2023-05-16T13:43:18.920Z,11.36
2023-05-16T13:56:30.920Z,11.22
2023-05-16T13:59:07.238Z,11.43
2023-05-16T14:01:47.977Z,11.88
2023-05-16T14:04:21.220Z,11.15
2023-05-16T14:07:08.921Z,11.39
2023-05-16T14:23:45.883Z,10.49
2023-05-16T14:26:25.889Z,10.90
2023-05-16T14:28:59.214Z,11.21
2023-05-16T14:31:32.954Z,10.86
2023-05-16T14:34:06.271Z,10.68
2023-05-16T14:36:39.936Z,10.65
2023-05-16T14:49:51.928Z,10.77
2023-05-16T14:52:25.221Z,10.14
2023-05-16T14:54:58.907Z,9.74
2023-05-16T14:57:32.309Z,9.65
2023-05-16T15:00:05.900Z,10.23
2023-05-16T15:02:39.186Z,10.52
2023-05-16T15:15:49.911Z,10.08
2023-05-16T15:18:37.151Z,10.25
2023-05-16T15:21:10.186Z,10.58
2023-05-16T15:23:43.892Z,10.23
2023-05-16T15:26:17.713Z,10.09
2023-05-16T15:28:50.929Z,9.93
2023-05-16T15:42:34.910Z,10.01
2023-05-16T15:45:10.654Z,10.19
2023-05-16T15:47:43.987Z,9.73
2023-05-16T15:50:17.309Z,9.45
2023-05-16T15:52:50.922Z,9.98
2023-05-16T15:55:24.205Z,9.87
2023-05-16T15:57:59.881Z,9.68
2023-05-16T16:11:09.884Z,9.46
2023-05-16T16:13:45.101Z,9.43
2023-05-16T16:16:18.995Z,9.48
2023-05-16T16:18:53.260Z,8.93
2023-05-16T16:21:27.140Z,9.47
2023-05-16T16:24:00.493Z,9.10
2023-05-16T16:36:55.657Z,9.47
2023-05-16T16:39:35.920Z,9.32
2023-05-16T16:42:09.386Z,9.08
2023-05-16T16:44:42.908Z,9.43
2023-05-16T16:47:16.237Z,9.67
2023-05-16T16:49:49.881Z,9.13
2023-05-16T16:52:25.148Z,9.70
2023-05-16T17:02:44.107Z,9.55
2023-05-16T17:05:17.430Z,9.56
2023-05-16T17:07:52.918Z,9.75
2023-05-16T17:10:26.409Z,9.33
2023-05-16T17:12:59.922Z,8.99
2023-05-16T17:15:33.398Z,9.42
2023-05-16T17:18:06.946Z,9.22
2023-05-16T17:31:18.926Z,9.03
2023-05-16T17:33:52.285Z,8.53
2023-05-16T17:36:25.901Z,9.09
2023-05-16T17:38:59.192Z,8.86
2023-05-16T17:41:32.888Z,8.69
2023-05-16T17:44:06.163Z,8.57
2023-05-16T17:56:56.901Z,8.03
2023-05-16T17:59:36.905Z,7.47
2023-05-16T18:02:10.133Z,7.85
2023-05-16T18:04:43.943Z,7.51
2023-05-16T18:07:17.318Z,7.38
2023-05-16T18:09:50.900Z,7.19
2023-05-16T18:12:26.415Z,6.95
2023-05-16T18:25:16.865Z,6.18
2023-05-16T18:27:59.890Z,6.03
2023-05-16T18:30:33.221Z,6.08
2023-05-16T18:33:06.938Z,6.08
2023-05-16T18:35:40.234Z,6.16
2023-05-16T18:38:28.473Z,6.33
2023-05-16T18:51:44.898Z,6.19
2023-05-16T18:54:18.173Z,6.15
2023-05-16T18:56:51.912Z,5.89
2023-05-16T18:59:25.329Z,6.03
2023-05-16T19:01:58.890Z,6.34
2023-05-16T19:18:36.140Z,5.36
2023-05-16T19:21:16.899Z,5.28
2023-05-16T19:23:50.163Z,5.45
2023-05-16T19:26:23.875Z,5.49
2023-05-16T19:28:57.158Z,5.51
2023-05-16T19:31:31.923Z,5.52
2023-05-16T19:34:07.177Z,5.85
2023-05-16T19:43:30.922Z,5.59
2023-05-16T19:46:04.141Z,5.65
2023-05-16T19:48:38.034Z,5.53
2023-05-16T19:51:13.262Z,5.82
2023-05-16T19:53:46.914Z,5.71
2023-05-16T19:56:20.158Z,6.00
2023-05-16T19:58:53.890Z,5.67
2023-05-16T20:12:06.691Z,5.78
2023-05-16T20:14:40.222Z,5.71
2023-05-16T20:17:13.901Z,6.15
2023-05-16T20:19:47.099Z,5.81
2023-05-16T20:22:20.886Z,6.02
2023-05-16T20:39:02.660Z,6.20
2023-05-16T20:41:42.887Z,6.22
2023-05-16T20:44:16.222Z,6.44
2023-05-16T20:46:49.896Z,6.02
2023-05-16T20:49:23.148Z,6.41
2023-05-16T20:51:56.910Z,6.21
2023-05-16T21:05:23.192Z,6.07
2023-05-16T21:07:58.113Z,6.10
2023-05-16T21:10:31.876Z,5.92
2023-05-16T21:13:05.296Z,6.04
2023-05-16T21:15:38.886Z,5.68
2023-05-16T21:18:12.172Z,5.62
2023-05-16T21:31:02.891Z,5.67
2023-05-16T21:33:42.954Z,5.61
2023-05-16T21:36:16.150Z,5.84
2023-05-16T21:38:50.930Z,5.71
2023-05-16T21:41:24.161Z,5.56
2023-05-16T21:43:57.899Z,5.63
2023-05-16T21:57:09.903Z,4.92
2023-05-16T21:59:47.924Z,5.12
2023-05-16T22:02:27.919Z,5.24
2023-05-16T22:05:01.526Z,5.21
2023-05-16T22:07:34.966Z,5.23
2023-05-16T22:10:09.633Z,4.94
2023-05-16T22:12:44.911Z,5.24
2023-05-16T22:25:54.882Z,5.13
2023-05-16T22:28:30.229Z,5.16
2023-05-16T22:31:03.898Z,5.25
2023-05-16T22:33:37.199Z,5.13
2023-05-16T22:36:11.916Z,5.07
2023-05-16T22:38:45.297Z,4.88
2023-05-16T22:51:35.857Z,5.32
2023-05-16T22:54:15.865Z,5.17
2023-05-16T22:56:49.221Z,5.35
2023-05-16T22:59:22.885Z,5.46
2023-05-16T23:01:56.359Z,5.33
2023-05-16T23:17:26.919Z,4.88
2023-05-16T23:20:00.343Z,4.83
2023-05-16T23:22:33.937Z,4.89
2023-05-16T23:25:08.484Z,4.60
2023-05-16T23:27:41.876Z,4.48
2023-05-16T23:30:16.283Z,4.70
2023-05-16T23:32:51.993Z,4.48
2023-05-16T23:46:02.116Z,4.33
2023-05-16T23:48:37.338Z,4.28
2023-05-16T23:51:11.868Z,4.13
2023-05-16T23:53:45.169Z,4.12
2023-05-16T23:58:48.429Z,3.97
